EmailTwitter


Surface observations / Quebec / CYUL (71627)

Regions: Quebec | Canada | USA | Europe | France | UK | Elsewhere
Station
Display
Info & Location for CYUL (71627) | Help decoding METAR

Weather Conditions observed on 2019/10/22 at 01:00 UTC at MONTREAL INTL A, QB (CYUL)

Sky conditions: few clouds.

Temperature: 9.0 Celsius.

Dewpoint: 5.0 Celsius.

Relative Humidity: 76%

Windchill Factor: 7.

Winds: Northeast at 13 km/h or 7 knots.

Mean Sea level Pressure: 102.08 kilopascals.

Altimeter Setting (QNH): 102.07 kilopascals or 30.14 inches of mercury.

Horizontal visibility: 15.00 statute miles or 24.00 kilometers.

Coded METAR:

CYUL 220100Z 05007KT 15SM FEW250 09/05 A3014 RMK CI2 CONTRAILS SLP208=